Time;durP1;ratioP1;P1;durP2;ratioP2;P2;SDS_P1;SDS_P2;PMS_P1;PMS_P2;Temp;Humidity;BMP_temperature;BMP_pressure;BME280_temperature;BME280_humidity;BME280_pressure;Samples;Min_cycle;Max_cycle;Signal;HPM_P1;HPM_P2
2021/04/16 00:00:52;;;;;;;17.00;10.68;;;;;;;1.75;76.59;97263.79;1747829;79;28517;-79
2021/04/16 00:03:20;;;;;;;21.68;12.55;;;;;;;1.76;76.58;97262.31;1748493;79;25730;-80
2021/04/16 00:05:47;;;;;;;25.68;14.05;;;;;;;1.78;76.63;97253.67;1723997;79;25864;-79
2021/04/16 00:08:30;;;;;;;22.70;14.80;;;;;;;1.80;76.64;97255.68;1728714;82;25813;-78
2021/04/16 00:11:21;;;;;;;26.23;14.65;;;;;;;1.79;76.62;97258.00;1724419;82;25801;-79
2021/04/16 00:13:48;;;;;;;26.37;16.45;;;;;;;1.81;76.66;97255.98;1717670;81;28411;-79
2021/04/16 00:16:19;;;;;;;32.85;17.90;;;;;;;1.84;76.67;97258.00;1727304;80;25836;-79
2021/04/16 00:18:47;;;;;;;32.00;17.15;;;;;;;1.86;76.66;97254.19;1747603;79;25746;-79
2021/04/16 00:21:15;;;;;;;27.27;17.40;;;;;;;1.78;76.62;97255.50;1746849;80;25709;-79
2021/04/16 00:23:42;;;;;;;29.55;17.10;;;;;;;1.76;76.77;97253.48;1742867;79;25730;-79
2021/04/16 00:26:12;;;;;;;27.48;16.77;;;;;;;1.74;76.85;97254.14;1741317;79;27495;-79
2021/04/16 00:28:41;;;;;;;27.00;16.12;;;;;;;1.64;76.83;97254.27;1742601;81;26086;-79
2021/04/16 00:31:19;;;;;;;31.65;16.90;;;;;;;1.60;76.93;97246.75;1753800;79;25752;-79
2021/04/16 00:33:47;;;;;;;32.38;17.92;;;;;;;1.58;77.07;97241.59;1744672;80;25682;-77
2021/04/16 00:36:16;;;;;;;31.97;18.60;;;;;;;1.62;77.17;97242.11;1746510;81;25690;-78
2021/04/16 00:38:44;;;;;;;34.03;19.15;;;;;;;1.65;77.20;97247.95;1748331;80;27500;-77
2021/04/16 00:41:15;;;;;;;36.42;19.80;;;;;;;1.67;77.21;97251.30;1743543;79;26128;-78
2021/04/16 00:43:43;;;;;;;35.93;20.23;;;;;;;1.69;77.16;97251.95;1719198;82;25809;-78
2021/04/16 00:46:24;;;;;;;33.15;18.23;;;;;;;1.73;77.19;97251.14;1736701;79;25724;-78
2021/04/16 00:48:59;;;;;;;36.70;18.60;;;;;;;1.72;77.12;97250.30;1739971;80;25811;-78
2021/04/16 00:51:34;;;;;;;34.45;19.75;;;;;;;1.73;77.16;97238.66;1765476;79;28467;-78
2021/04/16 00:54:04;;;;;;;36.20;19.20;;;;;;;1.75;77.18;97246.00;1777366;79;25795;-78
2021/04/16 00:56:32;;;;;;;30.77;17.57;;;;;;;1.77;77.14;97244.52;1794687;79;25687;-78
2021/04/16 00:59:00;;;;;;;26.75;16.75;;;;;;;1.76;77.08;97242.34;1793984;79;25522;-78
2021/04/16 01:01:28;;;;;;;31.95;18.37;;;;;;;1.79;77.07;97245.19;1802122;78;25692;-78
2021/04/16 01:03:56;;;;;;;28.40;17.90;;;;;;;1.83;77.07;97243.86;1772369;79;28370;-78
2021/04/16 01:06:25;;;;;;;30.72;17.30;;;;;;;1.85;77.02;97245.86;1793294;79;26133;-78
2021/04/16 01:08:54;;;;;;;30.68;18.70;;;;;;;1.87;76.96;97251.03;1770822;79;25710;-78
2021/04/16 01:11:22;;;;;;;31.25;18.05;;;;;;;1.85;76.93;97255.67;1795700;78;26463;-78
2021/04/16 01:13:50;;;;;;;30.88;17.67;;;;;;;1.80;76.98;97251.69;1790169;79;25710;-78
2021/04/16 01:16:21;;;;;;;31.52;17.85;;;;;;;1.74;77.01;97256.30;1781463;78;26976;-78
2021/04/16 01:18:49;;;;;;;31.37;19.57;;;;;;;1.67;77.04;97251.30;1787288;78;26213;-79
2021/04/16 01:21:22;;;;;;;32.50;18.62;;;;;;;1.65;77.13;97247.95;1798952;79;25680;-79
2021/04/16 01:24:23;;;;;;;34.92;20.35;;;;;;;1.67;77.25;97247.30;1762367;80;25840;-78
2021/04/16 01:26:52;;;;;;;33.15;20.45;;;;;;;1.71;77.27;97248.63;1772599;79;25829;-78
2021/04/16 01:29:20;;;;;;;35.55;20.45;;;;;;;1.67;77.15;97241.98;1772897;79;27502;-79
2021/04/16 01:31:48;;;;;;;35.60;20.40;;;;;;;1.62;77.21;97242.11;1794866;79;25666;-78
2021/04/16 01:34:23;;;;;;;35.50;20.95;;;;;;;1.60;77.32;97240.10;1783144;79;26362;-79
2021/04/16 01:36:54;;;;;;;38.88;22.13;;;;;;;1.54;77.39;97236.77;1801416;79;25848;-79
2021/04/16 01:39:24;;;;;;;44.05;22.98;;;;;;;1.50;77.45;97232.74;1803840;78;25679;-78
2021/04/16 01:41:52;;;;;;;40.95;23.18;;;;;;;1.48;77.53;97243.53;1798145;78;27494;-79
2021/04/16 01:44:24;;;;;;;41.30;22.42;;;;;;;1.48;77.63;97238.22;1770275;79;25767;-79
2021/04/16 01:47:07;;;;;;;36.53;22.52;;;;;;;1.49;77.72;97234.57;1798318;79;25758;-79
2021/04/16 01:49:39;;;;;;;37.58;21.75;;;;;;;1.48;77.74;97235.56;1803536;78;25770;-79
2021/04/16 01:52:12;;;;;;;39.60;22.22;;;;;;;1.47;77.81;97229.90;1779109;79;25767;-79
2021/04/16 01:54:43;;;;;;;38.50;21.75;;;;;;;1.47;77.86;97227.23;1801325;79;27480;-78
2021/04/16 01:57:16;;;;;;;38.05;21.87;;;;;;;1.49;77.88;97226.59;1778520;79;25747;-78
2021/04/16 01:59:46;;;;;;;42.38;24.52;;;;;;;1.50;77.91;97225.59;1784236;79;25784;-78
2021/04/16 02:02:19;;;;;;;40.52;23.12;;;;;;;1.46;77.84;97225.56;1773182;79;25838;-78
2021/04/16 02:04:47;;;;;;;39.30;23.07;;;;;;;1.46;77.91;97225.56;1801226;79;25779;-78
2021/04/16 02:07:15;;;;;;;36.83;23.20;;;;;;;1.42;77.95;97222.41;1796908;79;28361;-78
2021/04/16 02:09:42;;;;;;;39.18;22.65;;;;;;;1.42;78.03;97221.08;1769141;79;25928;-78
2021/04/16 02:12:14;;;;;;;40.15;21.68;;;;;;;1.45;78.11;97222.56;1801267;79;25761;-78
2021/04/16 02:14:42;;;;;;;37.03;21.85;;;;;;;1.48;78.14;97213.45;1790103;79;26526;-78
2021/04/16 02:17:14;;;;;;;35.35;21.30;;;;;;;1.55;78.14;97221.14;1790582;79;25818;-78
2021/04/16 02:19:42;;;;;;;32.83;19.95;;;;;;;1.56;78.05;97217.00;1791546;79;28358;-78
2021/04/16 02:22:17;;;;;;;29.77;17.55;;;;;;;1.59;78.01;97221.14;1789129;79;25667;-78
2021/04/16 02:24:47;;;;;;;27.37;16.40;;;;;;;1.60;77.98;97224.97;1763341;79;26393;-78
2021/04/16 02:27:17;;;;;;;30.15;14.03;;;;;;;1.66;77.90;97220.86;1800880;79;25812;-78
2021/04/16 02:29:44;;;;;;;25.30;14.20;;;;;;;1.68;77.78;97212.22;1801156;79;26495;-78
2021/04/16 02:32:13;;;;;;;23.47;13.35;;;;;;;1.71;77.70;97215.38;1801256;79;27486;-78
2021/04/16 02:34:41;;;;;;;32.75;17.67;;;;;;;1.74;77.65;97215.05;1795671;79;25304;-78
2021/04/16 02:37:14;;;;;;;27.02;16.60;;;;;;;1.75;77.62;97215.39;1757658;80;25338;-78
2021/04/16 02:39:42;;;;;;;23.38;12.85;;;;;;;1.74;77.60;97208.41;1791785;79;25955;-78
2021/04/16 02:42:10;;;;;;;28.07;15.35;;;;;;;1.75;77.47;97213.23;1783907;79;25813;-77
2021/04/16 02:44:38;;;;;;;23.38;14.03;;;;;;;1.76;77.41;97209.08;1801034;79;27708;-78
2021/04/16 02:47:07;;;;;;;18.10;10.50;;;;;;;1.71;77.25;97218.03;1801178;79;25751;-78
2021/04/16 02:49:35;;;;;;;15.38;9.53;;;;;;;1.72;77.23;97219.70;1801625;79;25772;-78
2021/04/16 02:52:04;;;;;;;17.27;10.25;;;;;;;1.73;77.23;97212.55;1804017;78;25670;-78
2021/04/16 02:54:32;;;;;;;19.75;11.33;;;;;;;1.66;77.19;97213.70;1783358;78;25671;-78
2021/04/16 02:56:59;;;;;;;19.32;11.45;;;;;;;1.65;77.18;97216.03;1802627;79;28491;-78
2021/04/16 02:59:30;;;;;;;16.00;9.00;;;;;;;1.65;77.24;97216.03;1785403;78;26514;-78
2021/04/16 03:01:57;;;;;;;20.05;11.30;;;;;;;1.64;77.15;97217.02;1794717;79;25653;-78
2021/04/16 03:04:24;;;;;;;20.37;11.00;;;;;;;1.59;77.09;97212.66;1789783;78;25652;-78
2021/04/16 03:06:52;;;;;;;20.92;11.93;;;;;;;1.61;77.09;97224.48;1789476;79;25833;-78
2021/04/16 03:09:19;;;;;;;18.32;11.45;;;;;;;1.57;77.09;97222.62;1803546;78;27502;-78
2021/04/16 03:11:47;;;;;;;18.75;10.90;;;;;;;1.56;77.13;97223.65;1799485;78;26591;-78
2021/04/16 03:14:15;;;;;;;19.02;10.58;;;;;;;1.56;77.18;97221.48;1777106;79;25690;-78
2021/04/16 03:16:43;;;;;;;16.48;9.73;;;;;;;1.54;77.18;97219.47;1803514;79;26488;-78
2021/04/16 03:19:11;;;;;;;16.12;9.13;;;;;;;1.52;77.20;97226.28;1800912;78;25728;-78
2021/04/16 03:21:39;;;;;;;14.15;9.23;;;;;;;1.51;77.17;97224.61;1791102;79;28475;-78
2021/04/16 03:24:08;;;;;;;15.90;9.48;;;;;;;1.50;77.20;97220.28;1809249;78;25740;-78
2021/04/16 03:26:36;;;;;;;13.70;8.65;;;;;;;1.47;77.19;97216.59;1809300;79;25672;-78
2021/04/16 03:29:05;;;;;;;13.65;9.18;;;;;;;1.49;77.32;97216.44;1809376;78;26250;-78
2021/04/16 03:31:34;;;;;;;12.13;7.85;;;;;;;1.48;77.32;97212.11;1809338;79;25319;-78
2021/04/16 03:34:01;;;;;;;13.80;9.08;;;;;;;1.46;77.31;97209.61;1809339;79;27487;-78
2021/04/16 03:36:30;;;;;;;12.88;8.15;;;;;;;1.48;77.39;97210.78;1768809;78;26210;-78
2021/04/16 03:38:59;;;;;;;13.72;7.62;;;;;;;1.47;77.42;97211.77;1777398;79;25760;-78
2021/04/16 03:41:26;;;;;;;15.10;7.80;;;;;;;1.46;77.37;97216.26;1795486;79;25783;-78
2021/04/16 03:43:54;;;;;;;11.65;6.87;;;;;;;1.43;77.43;97211.28;1809444;79;26124;-78
2021/04/16 03:46:23;;;;;;;10.85;6.28;;;;;;;1.43;77.43;97216.60;1785828;79;28879;-78
2021/04/16 03:48:51;;;;;;;13.20;7.17;;;;;;;1.44;77.42;97219.60;1799039;79;25716;-78
2021/04/16 03:51:18;;;;;;;13.70;8.00;;;;;;;1.44;77.45;97216.94;1809360;79;25735;-78
2021/04/16 03:53:46;;;;;;;15.98;9.48;;;;;;;1.45;77.51;97221.23;1806067;78;25817;-78
2021/04/16 03:56:15;;;;;;;16.65;10.23;;;;;;;1.46;77.62;97220.25;1764249;79;25616;-78
2021/04/16 03:58:44;;;;;;;20.65;11.88;;;;;;;1.51;77.70;97223.28;1762492;79;28400;-78
2021/04/16 04:01:12;;;;;;;20.85;12.03;;;;;;;1.49;77.69;97213.28;1809817;79;25701;-78
2021/04/16 04:03:40;;;;;;;20.35;11.25;;;;;;;1.48;77.68;97220.92;1782934;78;25786;-78
2021/04/16 04:06:08;;;;;;;20.85;11.88;;;;;;;1.46;77.72;97221.58;1809592;79;26303;-78
2021/04/16 04:08:36;;;;;;;19.00;11.12;;;;;;;1.41;77.73;97223.90;1797109;78;25690;-78
2021/04/16 04:11:05;;;;;;;20.80;12.40;;;;;;;1.38;77.80;97220.22;1796362;79;27485;-78
2021/04/16 04:13:32;;;;;;;20.40;12.18;;;;;;;1.35;77.84;97223.19;1782334;79;25770;-78
2021/04/16 04:16:00;;;;;;;19.48;11.93;;;;;;;1.33;77.90;97223.34;1804806;78;25817;-78
2021/04/16 04:18:29;;;;;;;19.65;11.78;;;;;;;1.34;77.96;97226.34;1777586;79;26474;-78
2021/04/16 04:20:57;;;;;;;23.67;12.78;;;;;;;1.35;78.02;97223.19;1798364;79;25637;-78
2021/04/16 04:23:24;;;;;;;20.80;13.00;;;;;;;1.34;78.09;97222.35;1764536;79;27561;-78
2021/04/16 04:25:51;;;;;;;25.65;14.05;;;;;;;1.35;78.12;97227.17;1777480;79;25872;-78
2021/04/16 04:28:19;;;;;;;28.95;14.03;;;;;;;1.35;78.18;97225.35;1777577;79;25731;-78
2021/04/16 04:30:47;;;;;;;31.37;15.68;;;;;;;1.38;78.20;97223.71;1777673;79;25695;-78
2021/04/16 04:33:14;;;;;;;26.07;13.85;;;;;;;1.35;78.19;97220.53;1777572;79;25795;-78
2021/04/16 04:35:42;;;;;;;27.50;13.75;;;;;;;1.37;78.25;97227.86;1777438;79;27502;-78
2021/04/16 04:38:10;;;;;;;26.10;12.88;;;;;;;1.37;78.26;97225.20;1773891;79;26152;-78
2021/04/16 04:40:37;;;;;;;27.52;15.05;;;;;;;1.35;78.25;97229.84;1766400;79;25711;-78
2021/04/16 04:43:06;;;;;;;25.27;14.47;;;;;;;1.36;78.33;97228.84;1777596;79;25783;-78
2021/04/16 04:45:33;;;;;;;26.40;14.33;;;;;;;1.38;78.36;97231.69;1777609;79;25310;-78
2021/04/16 04:48:01;;;;;;;29.00;16.05;;;;;;;1.41;78.40;97233.20;1800661;78;27542;-78
2021/04/16 04:50:28;;;;;;;49.33;27.73;;;;;;;1.44;78.40;97232.41;1795925;79;25771;-78
2021/04/16 04:52:56;;;;;;;45.60;24.32;;;;;;;1.54;78.42;97232.28;1769333;79;26297;-78
2021/04/16 04:55:33;;;;;;;38.90;19.80;;;;;;;1.60;78.37;97234.78;1769280;79;25879;-78
2021/04/16 04:58:01;;;;;;;34.78;19.73;;;;;;;1.66;78.28;97238.15;1789726;79;25830;-78
2021/04/16 05:00:30;;;;;;;43.92;23.22;;;;;;;1.70;78.18;97236.81;1770465;79;27470;-78
2021/04/16 05:02:58;;;;;;;32.50;16.25;;;;;;;1.73;78.08;97238.66;1782547;79;25748;-77
2021/04/16 05:05:26;;;;;;;23.22;12.43;;;;;;;1.73;77.96;97232.02;1800488;79;25909;-78
2021/04/16 05:07:54;;;;;;;26.97;15.10;;;;;;;1.78;77.93;97236.87;1800566;79;26337;-77
2021/04/16 05:10:22;;;;;;;26.82;14.25;;;;;;;1.76;77.82;97233.03;1800554;79;25742;-77
2021/04/16 05:12:50;;;;;;;24.60;14.25;;;;;;;1.75;77.83;97237.19;1791113;79;28996;-77
2021/04/16 05:15:19;;;;;;;22.90;12.68;;;;;;;1.76;77.83;97246.34;1788029;79;25782;-77
2021/04/16 05:17:47;;;;;;;19.62;10.72;;;;;;;1.76;77.84;97239.69;1801822;78;25730;-77
2021/04/16 05:20:15;;;;;;;20.57;10.82;;;;;;;1.81;77.88;97239.22;1800269;79;26482;-79
2021/04/16 05:22:43;;;;;;;19.42;11.33;;;;;;;1.83;77.80;97242.52;1776702;78;26176;-79
2021/04/16 05:25:12;;;;;;;15.05;9.38;;;;;;;1.83;77.76;97241.19;1767939;79;28554;-78
2021/04/16 05:27:40;;;;;;;16.50;9.10;;;;;;;1.83;77.69;97245.68;1769114;79;26111;-79
2021/04/16 05:30:09;;;;;;;14.00;8.60;;;;;;;1.76;77.66;97243.67;1769209;79;25744;-79
2021/04/16 05:32:37;;;;;;;14.15;8.08;;;;;;;1.75;77.70;97243.34;1791566;79;26386;-78
2021/04/16 05:35:07;;;;;;;14.68;8.13;;;;;;;1.70;77.61;97243.47;1769314;79;25704;-79
2021/04/16 05:37:34;;;;;;;13.22;8.18;;;;;;;1.69;77.72;97239.97;1785231;79;27510;-79
2021/04/16 05:40:02;;;;;;;15.15;8.13;;;;;;;1.76;77.82;97246.34;1785822;79;26598;-79
2021/04/16 05:42:30;;;;;;;13.35;8.30;;;;;;;1.79;77.73;97240.70;1739136;80;25849;-79
2021/04/16 05:45:00;;;;;;;18.65;11.12;;;;;;;1.84;77.70;97250.02;1764035;79;26456;-79
2021/04/16 05:47:31;;;;;;;17.07;9.98;;;;;;;1.86;77.66;97245.37;1788169;79;25718;-79
2021/04/16 05:49:59;;;;;;;14.20;7.83;;;;;;;1.85;77.57;97245.03;1771592;78;27498;-79
2021/04/16 05:52:27;;;;;;;14.10;7.97;;;;;;;1.89;77.58;97241.06;1769272;79;26227;-79
2021/04/16 05:54:54;;;;;;;18.30;11.57;;;;;;;1.90;77.49;97242.73;1769387;79;25795;-79
2021/04/16 05:57:22;;;;;;;17.50;10.70;;;;;;;1.91;77.44;97243.91;1769392;79;25731;-79
2021/04/16 05:59:49;;;;;;;40.65;19.35;;;;;;;1.94;77.53;97244.05;1769394;79;25786;-79
2021/04/16 06:02:34;;;;;;;39.05;19.87;;;;;;;1.96;77.56;97232.75;1769325;79;28491;-79
2021/04/16 06:05:07;;;;;;;53.00;26.68;;;;;;;1.99;77.57;97233.77;1785002;79;25724;-79
2021/04/16 06:07:35;;;;;;;29.70;17.25;;;;;;;2.01;77.52;97237.94;1775981;79;25765;-80
2021/04/16 06:10:07;;;;;;;30.20;16.97;;;;;;;2.05;77.50;97239.79;1783413;79;26526;-78
2021/04/16 06:12:37;;;;;;;39.60;21.37;;;;;;;2.05;77.44;97239.27;1775361;79;25745;-78
2021/04/16 06:15:09;;;;;;;22.58;12.25;;;;;;;2.07;77.41;97237.28;1800782;79;28466;-79
2021/04/16 06:17:37;;;;;;;14.80;9.18;;;;;;;2.07;77.33;97235.95;1778655;79;26151;-79
2021/04/16 06:20:08;;;;;;;14.47;7.42;;;;;;;2.04;77.28;97234.13;1785051;79;25287;-78
2021/04/16 06:22:36;;;;;;;18.75;9.83;;;;;;;2.01;77.26;97233.11;1732132;81;25655;-78
2021/04/16 06:25:06;;;;;;;12.70;6.40;;;;;;;1.98;77.30;97229.44;1711069;82;25839;-78
2021/04/16 06:27:35;;;;;;;10.90;6.50;;;;;;;1.97;77.39;97234.42;1733249;81;28498;-79
2021/04/16 06:30:02;;;;;;;11.25;6.72;;;;;;;2.02;77.32;97238.78;1762249;80;25739;-79
2021/04/16 06:32:29;;;;;;;17.60;9.30;;;;;;;2.07;77.26;97242.60;1741786;81;25730;-80
2021/04/16 06:34:57;;;;;;;29.75;14.25;;;;;;;2.09;77.25;97241.95;1718753;82;25801;-81
2021/04/16 06:37:24;;;;;;;28.20;14.60;;;;;;;2.07;77.14;97233.78;1740520;82;25854;-80
2021/04/16 06:39:52;;;;;;;20.25;10.65;;;;;;;2.12;77.27;97234.14;1719268;82;27516;-80
2021/04/16 06:42:27;;;;;;;28.67;15.20;;;;;;;2.16;77.13;97233.66;1724679;82;25789;-80
2021/04/16 06:44:59;;;;;;;21.73;11.57;;;;;;;2.09;77.06;97242.44;1731422;82;25753;-80
2021/04/16 06:47:42;;;;;;;28.83;12.93;;;;;;;2.06;77.06;97237.44;1710091;82;25812;-80
2021/04/16 06:50:14;;;;;;;18.80;8.15;;;;;;;2.11;77.22;97240.46;1776697;79;25738;-80
2021/04/16 06:53:16;;;;;;;17.20;7.83;;;;;;;2.13;77.20;97243.80;1782373;79;27464;-80
2021/04/16 06:56:07;;;;;;;24.52;12.25;;;;;;;2.15;77.11;97244.47;1783382;79;34804;-79
2021/04/16 06:58:52;;;;;;;19.87;11.45;;;;;;;2.21;77.22;97242.97;1770901;79;25770;-79
2021/04/16 07:01:34;;;;;;;18.05;8.75;;;;;;;2.22;77.16;97241.48;1775248;79;26361;-79
2021/04/16 07:04:45;;;;;;;22.70;12.90;;;;;;;2.23;77.08;97239.66;1771808;79;25783;-79
2021/04/16 07:07:45;;;;;;;15.38;9.60;;;;;;;2.24;77.03;97235.50;1792422;79;27495;-78
2021/04/16 07:10:24;;;;;;;17.75;9.45;;;;;;;2.23;76.97;97232.50;1794227;79;26035;-77
2021/04/16 07:12:53;;;;;;;10.23;5.30;;;;;;;2.26;77.10;97234.84;1801581;79;25714;-77
2021/04/16 07:15:35;;;;;;;7.53;5.42;;;;;;;2.28;76.97;97235.52;1797265;79;25792;-78
2021/04/16 07:18:06;;;;;;;9.80;5.77;;;;;;;2.25;76.93;97220.36;1784835;79;25807;-78
2021/04/16 07:20:34;;;;;;;7.78;4.72;;;;;;;2.25;76.93;97220.36;1769127;79;28395;-77
2021/04/16 07:23:02;;;;;;;14.23;5.03;;;;;;;2.43;77.01;97237.02;1791392;79;25829;-77
2021/04/16 07:25:41;;;;;;;11.03;6.25;;;;;;;2.49;76.96;97237.20;1768408;79;25830;-77
2021/04/16 07:28:32;;;;;;;14.70;6.47;;;;;;;2.56;76.93;97235.20;1740402;79;25844;-77
2021/04/16 07:31:03;;;;;;;11.60;6.40;;;;;;;2.61;76.93;97230.22;1714943;82;25754;-76
2021/04/16 07:33:42;;;;;;;8.20;5.40;;;;;;;2.65;76.95;97236.89;1756283;81;28547;-76
2021/04/16 07:36:36;;;;;;;11.20;5.75;;;;;;;2.66;76.78;97238.03;1744378;80;25747;-77
2021/04/16 07:39:19;;;;;;;11.28;5.40;;;;;;;2.69;76.87;97232.38;1744770;81;25752;-76
2021/04/16 07:41:51;;;;;;;9.75;5.10;;;;;;;2.73;76.88;97239.05;1758669;80;26285;-76
2021/04/16 07:44:34;;;;;;;12.70;5.05;;;;;;;2.75;76.66;97237.55;1763016;80;25715;-76
2021/04/16 07:47:16;;;;;;;10.72;4.15;;;;;;;2.72;76.49;97233.38;1708366;82;28817;-76
2021/04/16 07:50:12;;;;;;;10.23;5.15;;;;;;;2.71;76.39;97237.55;1708781;82;25717;-75
2021/04/16 07:52:48;;;;;;;9.30;4.72;;;;;;;2.67;76.32;97238.86;1687092;83;25905;-76
2021/04/16 07:55:34;;;;;;;10.13;5.20;;;;;;;2.67;76.36;97237.53;1694755;83;26423;-76
2021/04/16 07:58:10;;;;;;;9.50;5.40;;;;;;;2.64;76.39;97244.55;1657608;84;25813;-76
2021/04/16 08:00:42;;;;;;;8.58;4.85;;;;;;;2.67;76.52;97244.19;1699342;83;28019;-76
2021/04/16 08:03:26;;;;;;;10.23;5.35;;;;;;;2.74;76.50;97246.55;1697566;84;25745;-76
2021/04/16 08:06:00;;;;;;;13.83;6.08;;;;;;;2.76;76.40;97242.72;1685001;82;25679;-76
2021/04/16 08:08:34;;;;;;;10.18;4.60;;;;;;;2.84;76.39;97241.37;1681861;83;26412;-77
2021/04/16 08:11:13;;;;;;;7.58;4.10;;;;;;;2.85;76.23;97247.55;1678823;83;25736;-78
2021/04/16 08:13:50;;;;;;;6.90;3.80;;;;;;;2.83;76.14;97249.54;1662883;85;27570;-78
2021/04/16 08:16:31;;;;;;;8.25;4.45;;;;;;;2.73;76.07;97243.05;1696364;83;25821;-77
2021/04/16 08:19:25;;;;;;;7.60;4.28;;;;;;;2.65;76.01;97248.88;1679595;83;25940;-78
2021/04/16 08:22:10;;;;;;;9.15;5.15;;;;;;;2.66;76.19;97245.19;1666374;83;25949;-77
2021/04/16 08:25:02;;;;;;;8.88;4.78;;;;;;;2.72;76.26;97249.87;1697930;83;25733;-77
2021/04/16 08:27:52;;;;;;;8.60;4.70;;;;;;;2.76;76.28;97252.05;1684032;83;27502;-77
2021/04/16 08:30:42;;;;;;;8.03;4.53;;;;;;;2.82;76.30;97245.20;1692422;83;26621;-77
2021/04/16 08:33:35;;;;;;;8.10;4.65;;;;;;;2.82;76.04;97247.88;1689829;83;26379;-76
2021/04/16 08:36:14;;;;;;;10.43;5.55;;;;;;;2.85;76.05;97246.21;1664414;83;25755;-77
2021/04/16 08:39:06;;;;;;;9.10;5.53;;;;;;;2.83;76.07;97248.20;1698030;83;25800;-78
2021/04/16 08:41:38;;;;;;;8.90;5.62;;;;;;;2.82;76.12;97250.54;1676876;83;27504;-78
2021/04/16 08:44:08;;;;;;;;;;;;;;;2.82;76.17;97242.54;1680629;83;25933;-79
2021/04/16 08:46:52;;;;;;;8.90;3.87;;;;;;;2.87;76.21;97245.55;1685234;83;25690;-79
2021/04/16 08:49:27;;;;;;;7.22;4.55;;;;;;;2.91;76.17;97242.86;1691124;83;25876;-80
2021/04/16 08:52:06;;;;;;;6.92;4.20;;;;;;;2.91;76.23;97240.20;1720887;81;25756;-79
2021/04/16 08:54:37;;;;;;;5.22;3.33;;;;;;;2.98;76.20;97245.20;1715932;82;29076;-79
2021/04/16 08:57:33;;;;;;;7.47;4.25;;;;;;;3.02;75.98;97245.19;1705489;82;25842;-80
2021/04/16 09:00:19;;;;;;;7.58;4.65;;;;;;;3.07;75.92;97244.19;1727113;82;26347;-79
2021/04/16 09:02:57;;;;;;;13.95;7.42;;;;;;;3.10;75.86;97246.53;1691817;82;26694;-79
2021/04/16 09:05:36;;;;;;;15.38;8.83;;;;;;;3.15;75.88;97244.17;1726801;82;25912;-79
2021/04/16 09:08:12;;;;;;;13.85;7.15;;;;;;;3.22;75.87;97246.52;1698612;82;27592;-79
2021/04/16 09:10:58;;;;;;;17.50;9.28;;;;;;;3.25;75.73;97242.69;1728484;82;26083;-77
2021/04/16 09:13:49;;;;;;;15.13;7.95;;;;;;;3.29;75.69;97243.16;1723708;82;25834;-79
2021/04/16 09:16:22;;;;;;;25.23;11.28;;;;;;;3.26;75.70;97246.48;1699696;82;25756;-77
2021/04/16 09:18:53;;;;;;;11.38;6.28;;;;;;;3.28;75.75;97252.16;1700498;82;26110;-78
2021/04/16 09:21:32;;;;;;;9.70;5.47;;;;;;;3.33;75.68;97252.00;1726191;82;28449;-77
2021/04/16 09:24:08;;;;;;;13.35;7.85;;;;;;;3.34;75.70;97255.00;1698075;82;25803;-78
2021/04/16 09:26:50;;;;;;;12.55;6.90;;;;;;;3.36;75.56;97254.33;1674369;82;25669;-78
2021/04/16 09:29:32;;;;;;;13.45;6.42;;;;;;;3.40;75.51;97254.80;1720810;82;26461;-78
2021/04/16 09:32:04;;;;;;;10.75;5.37;;;;;;;3.37;75.35;97260.50;1703586;82;26045;-77
2021/04/16 09:34:49;;;;;;;6.37;4.00;;;;;;;3.36;75.54;97261.50;1705421;82;27620;-77
2021/04/16 09:37:43;;;;;;;41.48;16.37;;;;;;;3.39;75.60;97260.64;1703686;82;25737;-78
2021/04/16 09:40:23;;;;;;;17.00;8.03;;;;;;;3.41;75.43;97261.31;1700365;82;25769;-78
2021/04/16 09:43:15;;;;;;;45.50;20.30;;;;;;;3.35;75.25;97252.66;1696034;82;26431;-79
2021/04/16 09:45:49;;;;;;;25.75;13.75;;;;;;;3.29;75.39;97255.99;1704504;82;25722;-78
2021/04/16 09:48:23;;;;;;;17.52;11.60;;;;;;;3.35;75.46;97257.16;1752873;81;26360;-79
2021/04/16 09:51:05;;;;;;;6.95;4.45;;;;;;;3.32;75.38;97258.83;1727783;82;25822;-79
2021/04/16 09:53:36;;;;;;;8.20;6.85;;;;;;;3.29;75.24;97263.16;1724476;82;25780;-79
2021/04/16 09:56:12;;;;;;;9.53;5.42;;;;;;;3.28;75.30;97256.99;1717148;82;26268;-79
2021/04/16 09:58:51;;;;;;;13.10;8.08;;;;;;;3.29;75.29;97257.83;1716688;82;25874;-78
2021/04/16 10:01:25;;;;;;;14.90;8.68;;;;;;;3.32;75.38;97255.66;1701581;82;27536;-79
2021/04/16 10:04:03;;;;;;;9.65;5.70;;;;;;;3.38;75.48;97254.16;1711786;81;26237;-79
2021/04/16 10:06:45;;;;;;;10.85;5.97;;;;;;;3.37;75.46;97250.66;1717998;80;25807;-80
2021/04/16 10:09:21;;;;;;;27.20;14.80;;;;;;;3.42;75.45;97247.47;1701863;82;26462;-79
2021/04/16 10:12:00;;;;;;;11.57;6.90;;;;;;;3.42;75.42;97247.47;1730830;82;25732;-80
2021/04/16 10:14:34;;;;;;;19.62;10.25;;;;;;;3.35;75.13;97250.50;1742198;82;28410;-79
2021/04/16 10:17:07;;;;;;;14.55;8.95;;;;;;;3.32;75.29;97252.99;1773420;79;25772;-80
2021/04/16 10:19:39;;;;;;;14.50;6.80;;;;;;;3.35;75.41;97258.00;1781582;79;26407;-79
2021/04/16 10:22:15;;;;;;;12.05;6.72;;;;;;;3.37;75.42;97247.16;1784809;79;25798;-79
2021/04/16 12:40:13;;;;;;;24.40;11.78;;;;;;;3.65;74.87;97293.78;1835198;77;26234;-78
2021/04/16 12:42:41;;;;;;;18.98;10.23;;;;;;;3.68;74.90;97290.77;1857205;77;25882;-78
2021/04/16 12:45:09;;;;;;;15.65;7.90;;;;;;;3.78;74.90;97295.91;1848002;77;27483;-78
2021/04/16 12:47:37;;;;;;;12.07;6.92;;;;;;;3.69;74.66;97295.11;1843832;77;26052;-78
2021/04/16 12:50:08;;;;;;;11.95;6.95;;;;;;;3.71;74.84;97294.44;1826503;77;25624;-78
2021/04/16 12:52:35;;;;;;;7.08;5.08;;;;;;;3.75;74.74;97295.75;1842097;77;25790;-78
2021/04/16 12:55:05;;;;;;;9.63;5.83;;;;;;;3.76;74.62;97300.08;1827785;77;25790;-78
2021/04/16 12:57:44;;;;;;;9.23;6.20;;;;;;;3.72;74.50;97297.45;1839314;77;27565;-78
2021/04/16 13:00:23;;;;;;;43.65;25.25;;;;;;;3.72;74.52;97294.78;1856634;77;25736;-78
2021/04/16 13:03:10;;;;;;;62.80;33.00;;;;;;;3.65;74.49;97292.95;1843326;77;25743;-78
2021/04/16 13:05:39;;;;;;;45.28;20.27;;;;;;;3.68;74.67;97285.94;1845764;77;25729;-78
2021/04/16 13:08:08;;;;;;;25.62;12.90;;;;;;;3.74;74.64;97291.44;1837844;77;25764;-78
2021/04/16 13:10:36;;;;;;;32.05;14.25;;;;;;;3.75;74.66;97286.40;1854611;77;27467;-78
2021/04/16 13:13:05;;;;;;;28.47;14.95;;;;;;;3.76;74.72;97284.06;1835725;77;26131;-78
2021/04/16 13:15:33;;;;;;;37.40;19.55;;;;;;;3.78;74.90;97287.40;1856877;77;25738;-77
2021/04/16 13:18:17;;;;;;;40.48;22.13;;;;;;;3.80;74.93;97281.39;1846323;77;26076;-77
2021/04/16 13:20:48;;;;;;;26.37;12.70;;;;;;;3.85;74.97;97279.05;1847974;77;25654;-77
2021/04/16 13:23:16;;;;;;;21.23;10.08;;;;;;;3.76;74.67;97285.90;1844136;77;28460;-78
2021/04/16 13:25:45;;;;;;;23.73;11.48;;;;;;;3.74;74.82;97282.09;1846421;77;25734;-77
2021/04/16 13:28:13;;;;;;;44.38;19.70;;;;;;;3.77;74.82;97281.73;1856726;77;25230;-77
2021/04/16 13:30:42;;;;;;;27.73;12.58;;;;;;;3.62;74.63;97280.80;1835548;77;26274;-78
2021/04/16 13:33:16;;;;;;;26.70;14.25;;;;;;;3.66;74.97;97278.59;1831437;77;26376;-78
2021/04/16 13:35:49;;;;;;;31.30;15.28;;;;;;;3.72;75.18;97280.59;1856762;77;27542;-77
2021/04/16 13:38:22;;;;;;;28.77;14.60;;;;;;;3.65;74.93;97284.44;1832815;77;25664;-78
2021/04/16 13:40:49;;;;;;;;;;;;;;;3.68;75.02;97280.59;1859536;77;25570;-79
2021/04/16 13:43:17;;;;;;;12.93;7.20;;;;;;;3.73;74.86;97283.09;1803805;77;25731;-79
2021/04/16 13:45:45;;;;;;;13.58;6.90;;;;;;;3.68;74.74;97285.44;1787229;78;25771;-78
2021/04/16 13:48:14;;;;;;;13.75;7.95;;;;;;;3.69;74.82;97283.59;1814613;78;27486;-78
2021/04/16 13:50:42;;;;;;;13.32;7.47;;;;;;;3.73;74.89;97287.10;1804525;78;25347;-77
2021/04/16 13:53:11;;;;;;;19.87;9.50;;;;;;;3.78;74.89;97288.73;1789864;78;25599;-78
2021/04/16 13:55:40;;;;;;;24.50;11.78;;;;;;;3.78;74.69;97284.73;1819566;78;25795;-78
2021/04/16 13:58:08;;;;;;;17.10;8.38;;;;;;;3.73;74.59;97292.44;1819536;78;25747;-77
2021/04/16 14:00:37;;;;;;;17.57;9.13;;;;;;;3.71;74.61;97295.78;1819777;78;28465;-77
2021/04/16 14:03:13;;;;;;;28.92;15.28;;;;;;;3.67;74.76;97294.44;1813072;78;25693;-77
2021/04/16 14:05:45;;;;;;;18.05;10.95;;;;;;;3.70;74.88;97295.95;1815344;78;25833;-77
2021/04/16 14:08:21;;;;;;;17.95;11.53;;;;;;;3.75;74.83;97290.41;1786226;78;25704;-77
2021/04/16 14:10:49;;;;;;;16.57;9.23;;;;;;;3.82;74.86;97296.75;1789326;78;25764;-77